Time;durP1;ratioP1;P1;durP2;ratioP2;P2;SDS_P1;SDS_P2;PMS_P1;PMS_P2;Temp;Humidity;BMP_temperature;BMP_pressure;BME280_temperature;BME280_humidity;BME280_pressure;Samples;Min_cycle;Max_cycle;Signal;HPM_P1;HPM_P2
2024/01/18 00:01:59;;;;;;;20.80;18.10;;;;;;;5.38;89.14;92162.84;5027747;28;20218;-76
2024/01/18 00:04:24;;;;;;;24.80;18.63;;;;;;;5.23;89.10;92140.28;5023599;28;20274;-76
2024/01/18 00:06:49;;;;;;;22.40;19.97;;;;;;;5.32;89.50;92161.28;5034352;28;20263;-76
2024/01/18 00:09:15;;;;;;;22.00;19.67;;;;;;;5.06;89.94;92141.59;5026105;28;20259;-75
2024/01/18 00:11:40;;;;;;;22.67;20.20;;;;;;;5.00;91.01;92147.78;5027424;28;20179;-75
2024/01/18 00:14:05;;;;;;;25.40;20.77;;;;;;;5.06;90.33;92131.22;5026202;28;20190;-76
2024/01/18 00:16:33;;;;;;;25.30;20.63;;;;;;;5.18;88.22;92114.44;5029023;28;20214;-76
2024/01/18 00:18:58;;;;;;;25.50;20.63;;;;;;;4.83;92.34;92140.22;5031975;28;20289;-75
2024/01/18 00:21:23;;;;;;;23.07;20.40;;;;;;;5.07;91.92;92128.38;5039840;28;20201;-76
2024/01/18 00:23:49;;;;;;;24.90;20.30;;;;;;;5.06;92.04;92136.41;5031330;28;21130;-75
2024/01/18 00:26:15;;;;;;;23.63;20.30;;;;;;;5.13;91.99;92139.50;5029618;28;20284;-76
2024/01/18 00:28:40;;;;;;;24.53;19.67;;;;;;;5.24;91.28;92143.66;5027694;28;20242;-76
2024/01/18 00:31:05;;;;;;;25.23;20.10;;;;;;;5.13;91.85;92136.91;5028920;28;20194;-76
2024/01/18 00:33:31;;;;;;;32.17;24.23;;;;;;;5.27;91.53;92146.53;5060905;28;20373;-75
2024/01/18 00:35:56;;;;;;;42.20;24.67;;;;;;;5.00;92.81;92109.75;5024616;28;20465;-76
2024/01/18 00:38:22;;;;;;;33.00;23.17;;;;;;;5.12;93.01;92122.44;5029440;28;20241;-76
2024/01/18 00:40:47;;;;;;;27.73;22.83;;;;;;;5.28;92.57;92124.00;5027732;28;20191;-76
2024/01/18 00:43:12;;;;;;;23.90;19.23;;;;;;;5.36;93.09;92113.13;5027996;28;20230;-76
2024/01/18 00:45:38;;;;;;;20.47;18.37;;;;;;;5.18;95.47;92116.25;5028365;28;20179;-76
2024/01/18 00:48:03;;;;;;;30.93;22.17;;;;;;;5.30;95.47;92109.78;5029528;28;20221;-75
2024/01/18 00:50:29;;;;;;;24.60;21.77;;;;;;;4.88;99.68;92122.94;5027428;28;20175;-76
2024/01/18 00:52:54;;;;;;;32.33;22.83;;;;;;;4.72;100.00;92112.78;5015776;28;20230;-76
2024/01/18 00:55:19;;;;;;;26.37;21.43;;;;;;;5.10;99.48;92111.56;5007678;28;20207;-76
2024/01/18 00:57:45;;;;;;;20.37;18.37;;;;;;;5.13;99.41;92098.91;5001207;28;20231;-76
2024/01/18 01:00:11;;;;;;;17.80;16.20;;;;;;;5.17;100.00;92099.16;5009324;28;20200;-75
2024/01/18 01:02:36;;;;;;;16.77;15.30;;;;;;;5.17;100.00;92099.94;5013188;28;20238;-77
2024/01/18 01:05:01;;;;;;;17.33;15.47;;;;;;;5.50;100.00;92098.63;5025357;28;20198;-76
2024/01/18 01:07:27;;;;;;;17.10;15.33;;;;;;;5.50;100.00;92098.63;5051323;28;20227;-76
2024/01/18 01:09:52;;;;;;;15.50;14.00;;;;;;;5.70;100.00;92067.53;5007069;28;20179;-75
2024/01/18 01:12:17;;;;;;;18.13;16.17;;;;;;;6.00;100.00;92096.00;5006171;28;20230;-76
2024/01/18 01:14:43;;;;;;;18.93;17.10;;;;;;;5.81;100.00;92075.03;5006572;28;20210;-76
2024/01/18 01:17:08;;;;;;;20.30;18.23;;;;;;;5.24;100.00;92063.47;5008293;28;20223;-75
2024/01/18 01:19:33;;;;;;;43.10;30.00;;;;;;;5.61;100.00;92074.28;5019781;28;20194;-75
2024/01/18 01:21:59;;;;;;;19.67;17.70;;;;;;;5.84;100.00;92073.75;5029887;28;20229;-72
2024/01/18 01:24:24;;;;;;;22.03;16.47;;;;;;;5.75;100.00;92062.38;5027043;28;20246;-75
2024/01/18 01:26:50;;;;;;;15.07;13.77;;;;;;;5.72;100.00;92045.53;5028637;28;20230;-74
2024/01/18 01:29:16;;;;;;;18.13;16.37;;;;;;;5.33;100.00;92030.84;5032122;28;20805;-74
2024/01/18 01:31:41;;;;;;;23.27;18.73;;;;;;;5.49;100.00;92038.34;5032286;28;20183;-73
2024/01/18 01:34:07;;;;;;;17.53;15.73;;;;;;;5.56;100.00;91994.03;5019402;28;20183;-74
2024/01/18 01:36:32;;;;;;;15.27;14.07;;;;;;;5.83;100.00;92016.03;5029692;28;20270;-74
2024/01/18 01:38:57;;;;;;;13.70;12.53;;;;;;;5.94;100.00;92030.50;5023734;28;20191;-74
2024/01/18 01:41:23;;;;;;;16.13;14.97;;;;;;;6.02;100.00;92018.81;5032574;28;20190;-74
2024/01/18 01:43:57;;;;;;;14.50;13.20;;;;;;;5.79;100.00;92035.69;5031650;28;20225;-74
2024/01/18 01:46:23;;;;;;;14.57;13.33;;;;;;;6.23;100.00;92046.97;5031523;28;20282;-74
2024/01/18 02:47:39;;;;;;;21.23;19.13;;;;;;;4.23;100.00;91961.78;5094531;27;20589;-73
2024/01/18 02:50:05;;;;;;;24.63;20.27;;;;;;;4.05;100.00;91967.41;5085650;28;20219;-73
2024/01/18 02:52:30;;;;;;;22.83;19.27;;;;;;;4.17;100.00;91968.72;5081080;28;20307;-73
2024/01/18 02:54:55;;;;;;;22.40;20.07;;;;;;;4.01;100.00;91951.66;5079048;28;20208;-73
2024/01/18 02:57:21;;;;;;;22.07;19.57;;;;;;;4.11;100.00;91941.34;5083683;28;20208;-73
2024/01/18 02:59:47;;;;;;;19.97;17.57;;;;;;;4.01;100.00;91949.06;5080515;28;20197;-73
2024/01/18 03:02:12;;;;;;;21.83;19.13;;;;;;;4.10;100.00;91955.28;5103122;28;20223;-73
2024/01/18 03:04:37;;;;;;;21.50;19.50;;;;;;;3.70;100.00;91970.66;5110916;28;20232;-73
2024/01/18 03:07:03;;;;;;;23.63;18.23;;;;;;;3.77;100.00;91965.25;5090406;28;20244;-73
2024/01/18 03:09:28;;;;;;;21.87;19.57;;;;;;;4.19;100.00;91969.25;5081332;28;20233;-73
2024/01/18 03:11:54;;;;;;;21.50;19.47;;;;;;;4.02;100.00;91963.53;5087194;28;20236;-73
2024/01/18 03:14:20;;;;;;;20.03;18.03;;;;;;;4.06;100.00;91956.81;5082241;28;20249;-73
2024/01/18 03:16:46;;;;;;;22.10;19.07;;;;;;;3.82;100.00;91942.03;5084401;28;20251;-73
2024/01/18 03:19:12;;;;;;;27.17;19.67;;;;;;;3.86;100.00;91946.44;5086239;28;20252;-73
2024/01/18 03:21:37;;;;;;;20.30;17.70;;;;;;;4.17;100.00;91940.31;5080483;28;20312;-73
2024/01/18 03:24:03;;;;;;;21.83;19.83;;;;;;;4.37;100.00;91962.84;5079731;28;20225;-73
2024/01/18 03:26:28;;;;;;;22.73;20.20;;;;;;;4.50;100.00;91988.16;5082571;28;20259;-73
2024/01/18 03:28:54;;;;;;;21.87;19.50;;;;;;;4.24;100.00;91966.69;5077982;28;20185;-73
2024/01/18 03:31:20;;;;;;;24.43;18.63;;;;;;;4.07;100.00;91966.13;5083489;28;20239;-73
2024/01/18 03:33:45;;;;;;;20.63;18.57;;;;;;;3.91;100.00;91967.13;5084702;28;20173;-74
2024/01/18 03:36:11;;;;;;;21.33;18.13;;;;;;;3.71;100.00;91967.03;5084504;28;20235;-73
2024/01/18 03:38:36;;;;;;;20.93;18.90;;;;;;;3.93;100.00;91952.16;5081137;28;20189;-73
2024/01/18 03:41:01;;;;;;;22.27;19.87;;;;;;;3.95;100.00;91962.22;5084035;28;20240;-73
2024/01/18 03:43:27;;;;;;;19.73;17.80;;;;;;;4.00;100.00;91944.94;5077233;28;20244;-74
2024/01/18 03:45:52;;;;;;;19.73;17.57;;;;;;;4.04;100.00;91976.97;5079745;28;20296;-73
2024/01/18 03:48:17;;;;;;;21.83;18.93;;;;;;;3.97;100.00;91942.84;5073604;28;20185;-73
2024/01/18 03:50:43;;;;;;;25.03;19.67;;;;;;;4.22;100.00;91942.91;5068165;28;20204;-73
2024/01/18 03:53:08;;;;;;;21.90;19.50;;;;;;;4.35;100.00;91968.25;5069877;28;20193;-74
2024/01/18 03:55:33;;;;;;;21.93;19.83;;;;;;;4.27;100.00;91981.66;5071106;28;20201;-73
2024/01/18 03:57:59;;;;;;;20.37;18.23;;;;;;;4.16;100.00;91964.59;5086497;28;20212;-73
2024/01/18 04:00:24;;;;;;;25.37;21.20;;;;;;;4.14;100.00;91971.06;5092334;28;20796;-74
2024/01/18 04:02:49;;;;;;;22.43;20.03;;;;;;;4.40;100.00;91965.69;5090239;28;20714;-73
2024/01/18 04:05:15;;;;;;;21.50;19.20;;;;;;;4.41;100.00;91951.72;5091819;28;20180;-74
2024/01/18 04:07:40;;;;;;;21.77;19.47;;;;;;;4.30;100.00;91937.25;5074052;28;20236;-74
2024/01/18 04:10:07;;;;;;;23.33;18.83;;;;;;;4.04;100.00;91961.47;5070384;28;20193;-73
2024/01/18 04:12:34;;;;;;;21.23;19.10;;;;;;;4.05;100.00;91951.91;5070829;28;20358;-74
2024/01/18 04:14:59;;;;;;;24.10;21.60;;;;;;;4.11;100.00;91946.50;5071396;28;20212;-73
2024/01/18 04:17:24;;;;;;;22.97;20.67;;;;;;;4.04;100.00;91958.13;5071149;28;20226;-75
2024/01/18 04:19:50;;;;;;;24.37;19.60;;;;;;;4.01;100.00;91941.34;5071617;28;20189;-73
2024/01/18 04:22:15;;;;;;;25.33;20.83;;;;;;;4.14;100.00;91971.06;5083682;28;20209;-73
2024/01/18 04:24:40;;;;;;;23.30;20.97;;;;;;;4.01;100.00;91967.16;5091434;28;20203;-74
2024/01/18 04:27:06;;;;;;;24.90;20.73;;;;;;;4.19;100.00;91973.63;5091085;28;20236;-73
2024/01/18 04:29:31;;;;;;;22.83;20.43;;;;;;;4.49;100.00;91989.97;5091347;28;20200;-74
2024/01/18 04:31:57;;;;;;;22.07;19.90;;;;;;;4.19;100.00;91984.75;5089212;28;20229;-73
2024/01/18 04:34:22;;;;;;;24.10;21.07;;;;;;;4.16;100.00;91980.09;5091779;28;20189;-73
2024/01/18 04:36:47;;;;;;;21.57;19.00;;;;;;;4.37;100.00;91999.75;5080208;28;20225;-73
2024/01/18 04:39:14;;;;;;;23.03;20.77;;;;;;;4.34;100.00;91982.19;5064687;28;20189;-73
2024/01/18 04:41:39;;;;;;;22.20;20.00;;;;;;;4.53;100.00;91972.91;5088972;28;20229;-75
2024/01/18 04:44:05;;;;;;;21.73;19.40;;;;;;;4.53;100.00;91965.16;5071949;28;20200;-75
2024/01/18 04:46:31;;;;;;;22.83;20.17;;;;;;;4.20;100.00;91952.72;5067841;28;20245;-75
2024/01/18 04:48:57;;;;;;;21.83;19.53;;;;;;;4.61;100.00;91985.34;5070380;28;20201;-74
2024/01/18 04:51:22;;;;;;;21.50;19.30;;;;;;;4.77;100.00;91955.09;5073530;28;20228;-76
2024/01/18 04:53:48;;;;;;;20.90;18.70;;;;;;;4.72;100.00;91966.22;5074881;28;20194;-75
2024/01/18 04:56:13;;;;;;;20.53;18.40;;;;;;;4.95;100.00;91962.31;5063105;28;20248;-75
2024/01/18 04:58:40;;;;;;;21.10;19.03;;;;;;;4.51;100.00;91951.72;5066096;28;20252;-74
2024/01/18 05:01:05;;;;;;;21.90;19.80;;;;;;;4.62;100.00;91942.19;5066406;28;20236;-73
2024/01/18 05:03:31;;;;;;;20.07;18.03;;;;;;;4.78;100.00;91951.47;5067859;28;20192;-75
2024/01/18 05:05:57;;;;;;;24.90;17.63;;;;;;;4.82;100.00;91961.03;5068104;28;20201;-75
2024/01/18 05:08:23;;;;;;;19.80;18.03;;;;;;;4.76;100.00;91963.91;5062215;28;20186;-81
2024/01/18 05:10:49;;;;;;;18.30;16.53;;;;;;;4.87;100.00;91957.69;5064395;28;20189;-76
2024/01/18 05:13:14;;;;;;;18.90;17.20;;;;;;;4.80;100.00;91983.81;5069141;28;20189;-76
2024/01/18 05:15:39;;;;;;;21.40;19.23;;;;;;;5.01;100.00;91957.94;5059358;28;20305;-77
2024/01/18 05:18:06;;;;;;;20.57;18.77;;;;;;;4.88;100.00;91983.28;5085588;28;20216;-77
2024/01/18 05:20:33;;;;;;;23.03;18.83;;;;;;;5.16;100.00;91963.06;5089211;28;20208;-79
2024/01/18 05:22:58;;;;;;;21.57;19.37;;;;;;;4.77;100.00;91981.72;5085526;28;20217;-79
2024/01/18 05:25:23;;;;;;;23.57;20.77;;;;;;;4.52;100.00;92002.38;5089039;28;20188;-78
2024/01/18 05:27:49;;;;;;;22.80;20.40;;;;;;;4.74;100.00;91981.47;5088436;28;20215;-76
2024/01/18 05:30:14;;;;;;;23.83;21.23;;;;;;;4.47;100.00;91961.03;5086858;28;20248;-77
2024/01/18 05:32:40;;;;;;;23.27;20.77;;;;;;;4.49;100.00;91979.66;5088244;28;20266;-78
2024/01/18 05:35:05;;;;;;;22.97;19.10;;;;;;;4.26;100.00;91974.97;5085003;28;20253;-77
2024/01/18 05:37:31;;;;;;;20.63;18.53;;;;;;;4.82;100.00;91953.28;5087977;28;20216;-78
2024/01/18 05:39:56;;;;;;;21.70;18.77;;;;;;;4.77;100.00;91980.94;5089686;28;20249;-79
2024/01/18 05:42:23;;;;;;;21.93;18.63;;;;;;;4.91;100.00;92000.88;5089584;28;20222;-95
2024/01/18 05:44:50;;;;;;;22.87;20.67;;;;;;;4.94;100.00;92005.53;5083289;28;20203;-78
2024/01/18 05:47:15;;;;;;;24.70;21.33;;;;;;;4.96;100.00;91971.66;5085281;28;20238;-77
2024/01/18 05:49:41;;;;;;;21.10;18.80;;;;;;;4.95;100.00;91991.53;5088277;28;20193;-77
2024/01/18 05:52:07;;;;;;;25.07;19.77;;;;;;;4.67;100.00;91981.72;5077075;28;20225;-75
2024/01/18 05:54:35;;;;;;;22.47;20.13;;;;;;;4.55;100.00;92001.09;5076557;28;20193;-74
2024/01/18 05:57:01;;;;;;;26.20;19.57;;;;;;;4.96;100.00;91969.81;5077671;28;20232;-74
2024/01/18 05:59:27;;;;;;;21.60;19.37;;;;;;;4.69;100.00;91973.69;5087906;28;20287;-73
2024/01/18 06:01:53;;;;;;;22.30;19.70;;;;;;;4.50;100.00;91990.75;5085999;28;20334;-73
2024/01/18 06:04:18;;;;;;;22.53;20.33;;;;;;;4.52;100.00;91996.44;5088026;28;20207;-73
2024/01/18 06:06:44;;;;;;;24.07;21.53;;;;;;;4.77;100.00;91986.13;5087129;28;20224;-73
2024/01/18 06:09:09;;;;;;;21.43;19.20;;;;;;;4.74;100.00;91971.91;5085008;28;20207;-74
2024/01/18 06:11:35;;;;;;;23.00;20.60;;;;;;;4.76;100.00;91980.16;5087389;28;20229;-73
2024/01/18 06:14:00;;;;;;;21.63;19.33;;;;;;;4.82;100.00;91999.81;5086677;28;21256;-74
2024/01/18 06:16:26;;;;;;;22.87;20.50;;;;;;;4.86;100.00;92000.88;5086326;28;20236;-74
2024/01/18 06:18:52;;;;;;;24.20;21.73;;;;;;;4.73;100.00;92011.72;5088218;28;20196;-74
2024/01/18 06:21:17;;;;;;;22.67;19.57;;;;;;;4.63;100.00;91954.06;5088243;28;20229;-74
2024/01/18 06:23:43;;;;;;;22.80;19.60;;;;;;;4.81;100.00;91998.28;5088419;28;20180;-74
2024/01/18 06:26:10;;;;;;;23.20;20.90;;;;;;;4.57;100.00;91997.22;5087855;28;20244;-73
2024/01/18 06:28:37;;;;;;;26.77;21.70;;;;;;;4.78;100.00;91996.19;5088092;28;20246;-75
2024/01/18 06:31:02;;;;;;;22.33;19.97;;;;;;;4.51;100.00;91987.13;5082395;28;20225;-74
2024/01/18 06:33:28;;;;;;;23.03;20.73;;;;;;;4.87;100.00;91986.88;5065915;28;20201;-75
2024/01/18 06:35:53;;;;;;;23.57;21.10;;;;;;;4.65;100.00;91988.19;5064977;28;20201;-75
2024/01/18 06:38:21;;;;;;;22.07;19.70;;;;;;;4.75;100.00;91991.56;5067794;28;20197;-76
2024/01/18 06:40:47;;;;;;;22.50;19.43;;;;;;;4.89;100.00;91984.03;5067536;28;21165;-76
2024/01/18 06:43:16;;;;;;;21.90;19.77;;;;;;;4.67;100.00;91988.69;5082605;28;20212;-78
2024/01/18 06:45:42;;;;;;;21.73;19.40;;;;;;;4.78;100.00;91962.59;5083640;28;20226;-76
2024/01/18 06:48:08;;;;;;;21.67;19.17;;;;;;;5.06;100.00;91981.22;5081962;28;20207;-76
2024/01/18 06:50:35;;;;;;;22.57;20.20;;;;;;;5.02;100.00;91970.59;5084998;28;20203;-76
2024/01/18 06:53:02;;;;;;;23.97;19.90;;;;;;;5.07;100.00;91975.00;5082612;28;20212;-74
2024/01/18 06:55:28;;;;;;;19.03;17.33;;;;;;;5.42;100.00;91942.06;5084564;28;20225;-80
2024/01/18 06:57:53;;;;;;;19.90;18.13;;;;;;;5.50;100.00;91977.75;5085435;28;20308;-77
2024/01/18 07:00:28;;;;;;;12.33;11.43;;;;;;;7.53;100.00;91956.28;5086809;28;20173;-76
2024/01/18 07:02:53;;;;;;;12.07;11.20;;;;;;;8.72;100.00;91931.63;5058825;28;20229;-78
2024/01/18 07:05:19;;;;;;;26.20;24.60;;;;;;;9.55;100.00;91950.59;5063266;28;20279;-77
2024/01/18 07:07:44;;;;;;;12.27;11.57;;;;;;;9.77;100.00;91948.09;5082792;28;20208;-76
2024/01/18 07:10:10;;;;;;;11.57;10.83;;;;;;;9.59;100.00;91956.75;5087803;28;20177;-78
2024/01/18 07:12:36;;;;;;;10.17;9.67;;;;;;;10.07;98.93;91929.28;5071937;28;20206;-78
2024/01/18 07:15:01;;;;;;;10.07;9.47;;;;;;;10.65;94.87;91918.91;5067772;28;20182;-75
2024/01/18 07:17:26;;;;;;;10.30;9.80;;;;;;;10.92;92.55;91932.66;5082484;28;20220;-76
2024/01/18 07:19:53;;;;;;;10.47;9.73;;;;;;;10.68;93.81;91889.59;5087674;28;20936;-76
2024/01/18 07:22:18;;;;;;;10.90;10.27;;;;;;;10.97;94.65;91898.56;5083072;28;20246;-76
2024/01/18 07:24:44;;;;;;;11.50;10.63;;;;;;;11.17;90.63;91876.44;5090369;28;20244;-77
2024/01/18 07:27:09;;;;;;;10.40;9.83;;;;;;;11.03;91.94;91863.44;5084166;28;20248;-77
2024/01/18 07:29:38;;;;;;;10.90;10.40;;;;;;;11.19;89.72;91822.78;5091660;28;20185;-76
2024/01/18 07:32:03;;;;;;;12.40;11.33;;;;;;;11.26;85.78;91869.41;5090744;28;20216;-77
2024/01/18 07:34:30;;;;;;;14.87;13.57;;;;;;;9.58;84.33;91861.41;5090946;28;20192;-77
2024/01/18 07:36:56;;;;;;;17.50;15.70;;;;;;;8.65;88.22;91879.97;5089507;28;20228;-77
2024/01/18 07:44:46;;;;;;;18.33;16.50;;;;;;;7.40;98.48;91834.88;5110768;27;20572;-77
2024/01/18 07:47:12;;;;;;;18.43;16.57;;;;;;;6.89;100.00;91808.72;5089132;28;20227;-77
2024/01/18 07:49:42;;;;;;;17.33;15.63;;;;;;;7.22;100.00;91826.00;5087653;28;20189;-77
2024/01/18 07:52:08;;;;;;;17.60;15.63;;;;;;;7.26;100.00;91803.63;5073306;28;20267;-76
2024/01/18 07:54:33;;;;;;;13.03;11.90;;;;;;;8.39;100.00;91769.56;5062567;28;20189;-75
2024/01/18 07:56:58;;;;;;;12.03;10.83;;;;;;;10.42;95.33;91798.09;5062244;28;20244;-76
2024/01/18 07:59:24;;;;;;;11.83;11.13;;;;;;;10.75;91.64;91788.94;5061302;28;20190;-77
2024/01/18 08:01:49;;;;;;;12.87;11.83;;;;;;;10.44;90.08;91769.09;5066018;28;20301;-76
2024/01/18 08:04:15;;;;;;;14.33;13.37;;;;;;;10.45;89.63;91791.50;5056770;28;20248;-76
2024/01/18 08:06:42;;;;;;;15.87;14.57;;;;;;;9.63;91.80;91759.69;5059072;28;20263;-77
2024/01/18 08:09:11;;;;;;;13.60;12.53;;;;;;;9.89;93.68;91758.09;5064059;28;20197;-76
2024/01/18 08:11:37;;;;;;;12.07;11.27;;;;;;;10.11;94.13;91786.81;5058603;28;20226;-77
2024/01/18 08:14:02;;;;;;;19.50;17.50;;;;;;;9.55;90.30;91802.06;5061043;28;20254;-77
2024/01/18 08:16:27;;;;;;;21.33;17.90;;;;;;;8.78;92.72;91787.41;5061152;28;20671;-77
2024/01/18 08:18:53;;;;;;;19.57;17.63;;;;;;;8.97;91.64;91780.28;5064244;28;20193;-77
2024/01/18 08:21:18;;;;;;;20.67;18.47;;;;;;;8.07;96.32;91806.72;5063944;28;20242;-76
2024/01/18 08:23:43;;;;;;;21.97;19.33;;;;;;;7.94;96.63;91796.25;5060809;28;20220;-76
2024/01/18 08:26:10;;;;;;;24.63;21.00;;;;;;;8.43;95.88;91788.00;5066203;28;20283;-78
2024/01/18 08:28:36;;;;;;;21.07;18.87;;;;;;;8.96;99.94;91768.31;5070161;28;20214;-77
2024/01/18 08:31:01;;;;;;;21.70;18.90;;;;;;;8.52;95.94;91796.69;5062769;28;20225;-77
2024/01/18 08:33:27;;;;;;;24.07;19.87;;;;;;;8.51;97.22;91788.13;5059338;28;20189;-77
2024/01/18 08:35:53;;;;;;;21.70;19.70;;;;;;;8.56;92.90;91788.00;5063212;28;20253;-88
2024/01/18 08:38:20;;;;;;;22.23;20.03;;;;;;;7.60;96.16;91780.09;5063951;28;20188;-83
2024/01/18 08:40:46;;;;;;;25.50;22.33;;;;;;;7.47;98.84;91817.91;5057202;28;20194;-79
2024/01/18 08:43:11;;;;;;;23.87;20.03;;;;;;;7.48;98.58;91783.13;5062274;28;20240;-80
2024/01/18 08:45:39;;;;;;;24.43;21.93;;;;;;;7.55;98.61;91780.16;5060946;28;20901;-78
2024/01/18 08:48:04;;;;;;;23.97;21.10;;;;;;;7.45;98.19;91783.69;5066116;28;20236;-74
2024/01/18 08:50:30;;;;;;;24.20;19.77;;;;;;;7.40;99.12;91769.97;5060260;28;20192;-75
2024/01/18 08:52:55;;;;;;;22.63;20.07;;;;;;;7.35;100.00;91817.53;5057792;28;20225;-77
2024/01/18 08:55:21;;;;;;;24.73;18.83;;;;;;;7.81;100.00;91799.56;5052971;28;20186;-75
2024/01/18 08:57:47;;;;;;;25.20;18.67;;;;;;;8.20;99.62;91807.84;5054944;28;20236;-76
2024/01/18 09:00:17;;;;;;;20.70;18.10;;;;;;;8.04;100.00;91807.28;5047575;28;20285;-76
2024/01/18 09:02:46;;;;;;;20.87;18.87;;;;;;;8.07;100.00;91793.72;5048102;28;20226;-76
2024/01/18 09:05:12;;;;;;;21.67;17.60;;;;;;;8.53;99.59;91806.03;5054758;28;20192;-77
2024/01/18 09:07:38;;;;;;;23.53;16.77;;;;;;;8.85;98.02;91791.19;5048838;28;20281;-77
2024/01/18 09:10:04;;;;;;;21.57;17.53;;;;;;;8.92;98.33;91780.38;5050036;28;20212;-77
2024/01/18 09:12:30;;;;;;;20.10;17.30;;;;;;;9.23;96.08;91802.94;5047354;28;20298;-77
2024/01/18 09:14:55;;;;;;;19.27;17.40;;;;;;;9.28;95.03;91809.88;5050484;28;20178;-76
2024/01/18 09:17:20;;;;;;;20.97;18.90;;;;;;;8.98;96.23;91774.03;5045073;28;20245;-75
2024/01/18 09:19:47;;;;;;;19.10;17.40;;;;;;;9.23;93.94;91765.75;5050632;28;20186;-75
2024/01/18 09:22:12;;;;;;;20.17;17.47;;;;;;;9.54;94.47;91777.84;5049791;28;20232;-77
2024/01/18 09:24:38;;;;;;;22.60;17.80;;;;;;;9.87;93.45;91796.69;5052458;28;20241;-77
2024/01/18 09:27:03;;;;;;;17.80;15.77;;;;;;;10.29;91.08;91777.28;5050079;28;20230;-77
2024/01/18 09:29:29;;;;;;;24.27;21.73;;;;;;;9.83;90.84;91769.69;5049813;28;20245;-77
2024/01/18 09:31:56;;;;;;;26.13;23.00;;;;;;;9.47;91.05;91781.91;5057039;28;20229;-77
2024/01/18 09:34:21;;;;;;;23.90;21.47;;;;;;;9.42;90.99;91768.97;5069910;28;20201;-74
2024/01/18 09:36:47;;;;;;;26.53;22.83;;;;;;;9.74;88.99;91771.44;5068716;28;20231;-77
2024/01/18 09:39:21;;;;;;;26.93;22.10;;;;;;;10.02;89.62;91769.53;5071745;28;20295;-77
2024/01/18 09:41:51;;;;;;;23.43;21.00;;;;;;;10.33;87.69;91747.72;5066418;28;20229;-78
2024/01/18 09:44:24;;;;;;;28.07;22.97;;;;;;;9.63;90.68;91738.84;5063671;28;20233;-76
2024/01/18 09:46:50;;;;;;;27.73;21.27;;;;;;;10.38;87.65;91734.53;5065279;28;20244;-77
2024/01/18 09:49:15;;;;;;;26.47;21.03;;;;;;;9.50;91.90;91698.75;5068722;28;20174;-76
2024/01/18 09:51:43;;;;;;;21.13;19.20;;;;;;;10.25;89.79;91719.72;5070605;28;21549;-77
2024/01/18 09:54:08;;;;;;;13.23;12.47;;;;;;;10.95;90.02;91697.03;5069002;28;20182;-74
2024/01/18 09:56:38;;;;;;;10.40;10.00;;;;;;;12.25;83.16;91686.44;5069446;28;20251;-77
2024/01/18 09:59:05;;;;;;;9.20;8.80;;;;;;;12.76;81.45;91702.00;5068509;28;20253;-76
2024/01/18 10:01:31;;;;;;;11.30;10.50;;;;;;;12.98;78.42;91694.66;5073573;28;20231;-77
2024/01/18 10:03:57;;;;;;;9.30;8.90;;;;;;;12.85;78.29;91700.13;5069473;28;20219;-76
2024/01/18 10:06:22;;;;;;;8.80;8.47;;;;;;;13.19;77.75;91705.25;5064548;28;20227;-74
2024/01/18 10:08:51;;;;;;;19.13;17.37;;;;;;;12.44;77.70;91689.44;5069182;28;20199;-75
2024/01/18 10:11:16;;;;;;;13.10;12.30;;;;;;;12.32;79.61;91661.31;5066771;28;20217;-75
2024/01/18 10:13:51;;;;;;;20.13;17.10;;;;;;;12.08;78.00;91657.66;5065495;28;20204;-77
2024/01/18 10:16:38;;;;;;;19.87;17.37;;;;;;;11.90;81.82;91667.38;5067697;28;20344;-76
2024/01/18 10:19:05;;;;;;;11.40;10.80;;;;;;;12.57;81.22;91638.75;5076623;28;20629;-76
2024/01/18 10:21:36;;;;;;;11.20;10.57;;;;;;;13.04;79.38;91626.41;5072246;28;20285;-76
2024/01/18 10:24:06;;;;;;;10.60;9.93;;;;;;;14.26;83.24;91612.50;5068504;28;20324;-74
2024/01/18 10:26:33;;;;;;;10.97;10.47;;;;;;;13.71;75.83;91598.19;5066710;28;20291;-76
2024/01/18 10:28:59;;;;;;;9.83;9.30;;;;;;;13.95;75.83;91593.81;5071114;28;20188;-75
2024/01/18 10:31:25;;;;;;;10.93;10.43;;;;;;;13.77;75.68;91589.03;5069568;28;20229;-74
2024/01/18 10:33:51;;;;;;;11.23;10.27;;;;;;;13.86;74.91;91587.09;5068445;28;20178;-75
2024/01/18 10:36:17;;;;;;;10.47;9.93;;;;;;;13.82;74.50;91592.22;5067056;28;20235;-74
2024/01/18 10:38:43;;;;;;;10.43;9.50;;;;;;;14.05;74.16;91585.53;5068286;28;20221;-75
2024/01/18 10:41:09;;;;;;;11.23;10.53;;;;;;;14.14;72.34;91607.22;5069780;28;20243;-76
2024/01/18 10:43:35;;;;;;;10.47;10.07;;;;;;;13.97;73.25;91607.38;5064602;28;20240;-77
2024/01/18 10:46:02;;;;;;;11.00;10.37;;;;;;;14.06;72.47;91589.69;5069802;28;20205;-78
2024/01/18 10:48:29;;;;;;;10.83;10.13;;;;;;;14.22;72.34;91589.84;5074773;28;20190;-76
2024/01/18 10:50:58;;;;;;;11.47;10.77;;;;;;;14.21;73.23;91601.44;5072660;28;20257;-77
2024/01/18 10:53:25;;;;;;;11.23;10.37;;;;;;;14.10;73.02;91603.69;5062803;28;20187;-77
2024/01/18 10:55:51;;;;;;;11.80;10.77;;;;;;;14.02;73.13;91585.41;5068688;28;20196;-75
2024/01/18 10:58:17;;;;;;;13.03;12.07;;;;;;;14.00;72.03;91563.97;5073678;28;20195;-74
2024/01/18 11:00:43;;;;;;;10.67;10.17;;;;;;;14.18;72.19;91560.84;5071422;28;20199;-74
2024/01/18 11:03:09;;;;;;;11.97;11.17;;;;;;;14.15;70.84;91550.22;5067395;28;20209;-76
2024/01/18 11:05:36;;;;;;;11.70;10.90;;;;;;;14.24;71.42;91550.94;5067935;28;20186;-75
2024/01/18 11:08:05;;;;;;;11.83;11.13;;;;;;;14.17;70.86;91553.28;5068952;28;20929;-76
2024/01/18 11:10:32;;;;;;;12.23;11.30;;;;;;;14.32;71.52;91532.44;5068865;28;20232;-76
2024/01/18 11:12:58;;;;;;;11.00;10.50;;;;;;;14.41;70.86;91514.72;5076734;28;20232;-75
2024/01/18 11:15:24;;;;;;;11.73;11.13;;;;;;;14.25;70.75;91505.22;5068410;28;20178;-76
2024/01/18 11:17:54;;;;;;;10.40;9.80;;;;;;;14.51;70.57;91518.03;5070984;28;20229;-74
2024/01/18 11:20:20;;;;;;;12.07;11.20;;;;;;;14.67;69.76;91516.25;5071538;28;20264;-77
2024/01/18 11:22:46;;;;;;;11.17;10.47;;;;;;;14.54;68.81;91496.38;5044237;28;20222;-76
2024/01/18 11:25:20;;;;;;;10.30;9.60;;;;;;;14.46;69.54;91475.13;5058858;28;20182;-77
2024/01/18 11:27:45;;;;;;;11.80;10.97;;;;;;;14.34;69.57;91477.75;5049752;28;20995;-74
2024/01/18 11:30:13;;;;;;;11.47;10.77;;;;;;;14.37;70.64;91510.47;5051525;28;20225;-73
2024/01/18 11:32:39;;;;;;;10.57;9.97;;;;;;;14.54;69.97;91514.75;5055672;28;20236;-74
2024/01/18 11:35:11;;;;;;;10.80;10.27;;;;;;;14.61;69.16;91507.06;5051969;28;20201;-73
2024/01/18 11:37:36;;;;;;;10.87;10.37;;;;;;;14.72;68.65;91484.53;5063809;28;20233;-74
2024/01/18 11:40:05;;;;;;;10.63;10.03;;;;;;;14.91;68.26;91495.22;5069703;28;20185;-73
2024/01/18 11:42:33;;;;;;;9.93;9.23;;;;;;;14.92;67.85;91533.53;5052093;28;20256;-74
2024/01/18 11:45:04;;;;;;;11.60;10.60;;;;;;;14.92;66.26;91517.78;5043410;28;20185;-73
2024/01/18 11:47:33;;;;;;;10.63;10.13;;;;;;;14.82;67.96;91534.00;5048309;28;20222;-74
2024/01/18 11:50:01;;;;;;;10.30;9.63;;;;;;;14.74;68.20;91538.25;5044316;28;20186;-75
2024/01/18 11:52:28;;;;;;;10.43;9.73;;;;;;;14.55;68.39;91521.53;5062967;28;20284;-74
2024/01/18 11:54:55;;;;;;;11.17;10.57;;;;;;;14.00;70.17;91478.16;5072632;28;20193;-74
2024/01/18 11:57:22;;;;;;;10.63;9.77;;;;;;;14.21;69.75;91489.31;5055399;28;20210;-72
2024/01/18 11:59:48;;;;;;;11.40;10.50;;;;;;;13.97;70.34;91484.03;5050943;28;20224;-73
2024/01/18 12:02:14;;;;;;;11.53;10.93;;;;;;;13.89;70.08;91474.41;5050874;28;20277;-74
2024/01/18 12:04:39;;;;;;;10.83;10.30;;;;;;;14.04;69.96;91491.34;5047115;28;20213;-75
2024/01/18 12:07:10;;;;;;;11.23;10.43;;;;;;;14.14;71.98;91502.22;5053255;28;20294;-76
2024/01/18 12:09:36;;;;;;;11.67;10.83;;;;;;;13.98;71.65;91501.31;5050044;28;20189;-76
2024/01/18 12:12:02;;;;;;;10.13;9.20;;;;;;;14.05;69.96;91522.56;5051931;28;20216;-76
2024/01/18 12:14:28;;;;;;;10.13;9.20;;;;;;;14.21;70.13;91518.19;5046388;28;20189;-76
2024/01/18 12:16:54;;;;;;;10.97;10.10;;;;;;;14.34;69.41;91522.38;5050788;28;20205;-76
2024/01/18 12:19:28;;;;;;;10.50;9.90;;;;;;;14.67;68.70;91537.28;5050265;28;20190;-76